sensor_id;sensor_type;location;lat;lon;timestamp;pressure;altitude;pressure_sealevel;temperature;humidity
46886;BME280;32622;48.202;11.326;2024-01-27T00:01:27;1037.32;;;2.37;34.81
46886;BME280;32622;48.202;11.326;2024-01-27T00:03:29;1037.31;;;2.46;34.88
46886;BME280;32622;48.202;11.326;2024-01-27T00:05:31;1037.33;;;2.27;35.17
46886;BME280;32622;48.202;11.326;2024-01-27T00:07:33;1037.33;;;2.27;35.07
46886;BME280;32622;48.202;11.326;2024-01-27T00:09:35;1037.43;;;1.80;35.19
46886;BME280;32622;48.202;11.326;2024-01-27T00:11:37;1037.37;;;1.87;34.97
46886;BME280;32622;48.202;11.326;2024-01-27T00:13:40;1037.24;;;2.40;34.83
46886;BME280;32622;48.202;11.326;2024-01-27T00:15:42;1037.21;;;2.49;34.82
46886;BME280;32622;48.202;11.326;2024-01-27T00:17:44;1037.21;;;2.66;34.37
46886;BME280;32622;48.202;11.326;2024-01-27T00:19:46;1037.29;;;2.48;34.53
46886;BME280;32622;48.202;11.326;2024-01-27T00:21:49;1037.28;;;2.50;34.46
46886;BME280;32622;48.202;11.326;2024-01-27T00:23:51;1037.39;;;2.10;34.77
46886;BME280;32622;48.202;11.326;2024-01-27T00:25:53;1037.28;;;2.68;34.22
46886;BME280;32622;48.202;11.326;2024-01-27T00:27:55;1037.29;;;2.93;34.39
46886;BME280;32622;48.202;11.326;2024-01-27T00:29:58;1037.54;;;1.96;34.63
46886;BME280;32622;48.202;11.326;2024-01-27T00:32:00;1037.51;;;2.23;34.82
46886;BME280;32622;48.202;11.326;2024-01-27T00:34:02;1037.57;;;2.02;34.63
46886;BME280;32622;48.202;11.326;2024-01-27T00:36:05;1037.44;;;2.62;34.76
46886;BME280;32622;48.202;11.326;2024-01-27T00:38:07;1037.46;;;2.66;34.79
46886;BME280;32622;48.202;11.326;2024-01-27T00:40:10;1037.58;;;2.11;34.55
46886;BME280;32622;48.202;11.326;2024-01-27T00:42:12;1037.62;;;1.88;34.56
46886;BME280;32622;48.202;11.326;2024-01-27T00:44:15;1037.52;;;2.16;34.60
46886;BME280;32622;48.202;11.326;2024-01-27T00:46:17;1037.61;;;1.84;34.57
46886;BME280;32622;48.202;11.326;2024-01-27T00:48:19;1037.53;;;2.00;34.67
46886;BME280;32622;48.202;11.326;2024-01-27T00:50:21;1037.45;;;2.13;34.95
46886;BME280;32622;48.202;11.326;2024-01-27T00:52:23;1037.45;;;2.26;34.81
46886;BME280;32622;48.202;11.326;2024-01-27T00:54:25;1037.52;;;1.96;34.71
46886;BME280;32622;48.202;11.326;2024-01-27T00:56:27;1037.45;;;2.10;34.63
46886;BME280;32622;48.202;11.326;2024-01-27T00:58:29;1037.37;;;2.39;34.56
46886;BME280;32622;48.202;11.326;2024-01-27T01:00:32;1037.47;;;1.90;34.65
46886;BME280;32622;48.202;11.326;2024-01-27T01:02:34;1037.37;;;2.30;34.46
46886;BME280;32622;48.202;11.326;2024-01-27T01:04:37;1037.34;;;2.29;34.59
46886;BME280;32622;48.202;11.326;2024-01-27T01:06:39;1037.41;;;1.89;34.44
46886;BME280;32622;48.202;11.326;2024-01-27T01:08:41;1037.32;;;2.24;34.58
46886;BME280;32622;48.202;11.326;2024-01-27T01:10:43;1037.35;;;1.89;34.67
46886;BME280;32622;48.202;11.326;2024-01-27T01:12:46;1037.34;;;1.90;34.78
46886;BME280;32622;48.202;11.326;2024-01-27T01:14:48;1037.39;;;1.67;34.57
46886;BME280;32622;48.202;11.326;2024-01-27T01:16:51;1037.34;;;1.93;34.44
46886;BME280;32622;48.202;11.326;2024-01-27T01:18:53;1037.33;;;1.93;34.52
46886;BME280;32622;48.202;11.326;2024-01-27T01:20:55;1037.39;;;2.01;34.46
46886;BME280;32622;48.202;11.326;2024-01-27T01:22:57;1037.42;;;2.12;34.69
46886;BME280;32622;48.202;11.326;2024-01-27T01:24:59;1037.56;;;1.78;34.33
46886;BME280;32622;48.202;11.326;2024-01-27T01:27:02;1037.63;;;1.61;34.53
46886;BME280;32622;48.202;11.326;2024-01-27T01:29:04;1037.67;;;1.63;34.82
46886;BME280;32622;48.202;11.326;2024-01-27T01:31:06;1037.64;;;1.65;34.55
46886;BME280;32622;48.202;11.326;2024-01-27T01:33:10;1037.69;;;1.57;34.58
46886;BME280;32622;48.202;11.326;2024-01-27T01:35:12;1037.69;;;1.68;34.52
46886;BME280;32622;48.202;11.326;2024-01-27T01:37:15;1037.71;;;1.67;34.55
46886;BME280;32622;48.202;11.326;2024-01-27T01:39:17;1037.67;;;1.99;34.51
46886;BME280;32622;48.202;11.326;2024-01-27T01:41:19;1037.82;;;1.47;34.64
46886;BME280;32622;48.202;11.326;2024-01-27T01:43:21;1037.74;;;2.01;34.55
46886;BME280;32622;48.202;11.326;2024-01-27T01:45:23;1037.72;;;2.22;33.77
46886;BME280;32622;48.202;11.326;2024-01-27T01:47:25;1037.76;;;2.21;33.61
46886;BME280;32622;48.202;11.326;2024-01-27T01:49:28;1037.89;;;1.70;34.31
46886;BME280;32622;48.202;11.326;2024-01-27T01:51:30;1037.86;;;1.83;34.13
46886;BME280;32622;48.202;11.326;2024-01-27T01:53:32;1037.90;;;1.55;34.46
46886;BME280;32622;48.202;11.326;2024-01-27T01:55:34;1037.77;;;1.95;34.51
46886;BME280;32622;48.202;11.326;2024-01-27T01:57:37;1037.95;;;1.26;34.51
46886;BME280;32622;48.202;11.326;2024-01-27T01:59:39;1037.92;;;1.64;34.38
46886;BME280;32622;48.202;11.326;2024-01-27T02:01:41;1037.87;;;1.86;33.99
46886;BME280;32622;48.202;11.326;2024-01-27T02:03:52;1037.85;;;2.03;33.78
46886;BME280;32622;48.202;11.326;2024-01-27T02:05:55;1037.79;;;2.31;34.18
46886;BME280;32622;48.202;11.326;2024-01-27T02:07:57;1038.00;;;1.58;34.37
46886;BME280;32622;48.202;11.326;2024-01-27T02:09:59;1037.98;;;1.66;34.54
46886;BME280;32622;48.202;11.326;2024-01-27T02:12:01;1038.20;;;1.02;35.03
46886;BME280;32622;48.202;11.326;2024-01-27T02:14:04;1038.02;;;1.75;34.71
46886;BME280;32622;48.202;11.326;2024-01-27T02:16:06;1038.12;;;1.40;34.25
46886;BME280;32622;48.202;11.326;2024-01-27T02:18:09;1038.07;;;1.65;34.55
46886;BME280;32622;48.202;11.326;2024-01-27T02:20:11;1038.21;;;1.30;34.44
46886;BME280;32622;48.202;11.326;2024-01-27T02:22:13;1038.18;;;1.44;34.18
46886;BME280;32622;48.202;11.326;2024-01-27T02:24:15;1038.19;;;1.47;34.56
46886;BME280;32622;48.202;11.326;2024-01-27T02:26:17;1038.04;;;2.17;34.20
46886;BME280;32622;48.202;11.326;2024-01-27T02:28:19;1038.19;;;1.62;34.45
46886;BME280;32622;48.202;11.326;2024-01-27T02:30:22;1038.29;;;1.28;34.98
46886;BME280;32622;48.202;11.326;2024-01-27T02:32:24;1038.36;;;1.04;34.78
46886;BME280;32622;48.202;11.326;2024-01-27T02:34:26;1038.29;;;1.35;34.47
46886;BME280;32622;48.202;11.326;2024-01-27T02:36:28;1038.22;;;1.72;34.52
46886;BME280;32622;48.202;11.326;2024-01-27T02:38:30;1038.27;;;1.55;34.91
46886;BME280;32622;48.202;11.326;2024-01-27T02:40:32;1038.24;;;1.59;34.48
46886;BME280;32622;48.202;11.326;2024-01-27T02:42:34;1038.34;;;1.25;34.65
46886;BME280;32622;48.202;11.326;2024-01-27T02:44:36;1038.29;;;1.61;34.78
46886;BME280;32622;48.202;11.326;2024-01-27T02:46:39;1038.28;;;1.63;34.41
46886;BME280;32622;48.202;11.326;2024-01-27T02:48:41;1038.32;;;1.60;34.67
46886;BME280;32622;48.202;11.326;2024-01-27T02:50:43;1038.31;;;1.74;34.75
46886;BME280;32622;48.202;11.326;2024-01-27T02:52:45;1038.46;;;1.15;34.78
46886;BME280;32622;48.202;11.326;2024-01-27T02:54:47;1038.38;;;1.57;34.50
46886;BME280;32622;48.202;11.326;2024-01-27T02:56:50;1038.43;;;1.41;34.59
46886;BME280;32622;48.202;11.326;2024-01-27T02:58:52;1038.39;;;1.54;34.38
46886;BME280;32622;48.202;11.326;2024-01-27T03:00:54;1038.27;;;2.00;34.41
46886;BME280;32622;48.202;11.326;2024-01-27T03:02:56;1038.53;;;0.97;35.04
46886;BME280;32622;48.202;11.326;2024-01-27T03:04:59;1038.50;;;1.07;34.69
46886;BME280;32622;48.202;11.326;2024-01-27T03:07:02;1038.47;;;1.23;34.82
46886;BME280;32622;48.202;11.326;2024-01-27T03:09:04;1038.42;;;1.49;34.93
46886;BME280;32622;48.202;11.326;2024-01-27T03:11:06;1038.46;;;1.43;34.35
46886;BME280;32622;48.202;11.326;2024-01-27T03:13:08;1038.44;;;1.55;34.74
46886;BME280;32622;48.202;11.326;2024-01-27T03:15:10;1038.43;;;1.45;34.95
46886;BME280;32622;48.202;11.326;2024-01-27T03:17:13;1038.48;;;1.25;35.33
46886;BME280;32622;48.202;11.326;2024-01-27T03:19:15;1038.53;;;1.07;35.61
46886;BME280;32622;48.202;11.326;2024-01-27T03:21:17;1038.52;;;1.19;35.46
46886;BME280;32622;48.202;11.326;2024-01-27T03:23:19;1038.45;;;1.45;35.64
46886;BME280;32622;48.202;11.326;2024-01-27T03:25:21;1038.75;;;0.22;36.37
46886;BME280;32622;48.202;11.326;2024-01-27T03:27:23;1038.66;;;0.72;36.01
46886;BME280;32622;48.202;11.326;2024-01-27T03:29:25;1038.70;;;0.90;36.17
46886;BME280;32622;48.202;11.326;2024-01-27T03:31:30;1038.77;;;0.81;36.01
46886;BME280;32622;48.202;11.326;2024-01-27T03:33:32;1038.74;;;1.15;35.42
46886;BME280;32622;48.202;11.326;2024-01-27T03:35:34;1038.94;;;0.44;36.29
46886;BME280;32622;48.202;11.326;2024-01-27T03:37:36;1038.83;;;0.94;35.72
46886;BME280;32622;48.202;11.326;2024-01-27T03:39:41;1038.85;;;0.89;35.62
46886;BME280;32622;48.202;11.326;2024-01-27T03:41:43;1038.95;;;0.67;35.82
46886;BME280;32622;48.202;11.326;2024-01-27T03:43:46;1039.04;;;0.32;35.98
46886;BME280;32622;48.202;11.326;2024-01-27T03:45:48;1039.04;;;0.53;36.00
46886;BME280;32622;48.202;11.326;2024-01-27T03:47:50;1038.94;;;0.90;35.51
46886;BME280;32622;48.202;11.326;2024-01-27T03:49:52;1038.92;;;0.96;35.63
46886;BME280;32622;48.202;11.326;2024-01-27T03:51:54;1038.97;;;0.97;35.41
46886;BME280;32622;48.202;11.326;2024-01-27T03:53:56;1039.01;;;0.85;35.31
46886;BME280;32622;48.202;11.326;2024-01-27T03:55:59;1038.98;;;0.99;35.07
46886;BME280;32622;48.202;11.326;2024-01-27T03:58:01;1038.92;;;1.17;35.40
46886;BME280;32622;48.202;11.326;2024-01-27T04:00:04;1039.04;;;0.63;35.57
46886;BME280;32622;48.202;11.326;2024-01-27T04:02:06;1038.99;;;0.73;35.71
46886;BME280;32622;48.202;11.326;2024-01-27T04:04:09;1038.96;;;0.92;35.25
46886;BME280;32622;48.202;11.326;2024-01-27T04:06:11;1039.03;;;0.68;35.33
46886;BME280;32622;48.202;11.326;2024-01-27T04:08:13;1038.97;;;0.89;35.10
46886;BME280;32622;48.202;11.326;2024-01-27T04:10:15;1038.96;;;1.02;35.11
46886;BME280;32622;48.202;11.326;2024-01-27T04:12:17;1038.93;;;1.20;34.87
46886;BME280;32622;48.202;11.326;2024-01-27T04:14:19;1038.99;;;0.97;35.04
46886;BME280;32622;48.202;11.326;2024-01-27T04:16:21;1038.86;;;1.44;34.75
46886;BME280;32622;48.202;11.326;2024-01-27T04:18:24;1038.90;;;1.44;34.72
46886;BME280;32622;48.202;11.326;2024-01-27T04:20:26;1038.82;;;1.65;34.59
46886;BME280;32622;48.202;11.326;2024-01-27T04:22:28;1038.95;;;1.23;34.78
46886;BME280;32622;48.202;11.326;2024-01-27T04:24:30;1038.98;;;1.16;34.77
46886;BME280;32622;48.202;11.326;2024-01-27T04:26:32;1038.92;;;1.34;34.79
46886;BME280;32622;48.202;11.326;2024-01-27T04:28:34;1038.98;;;1.23;34.86
46886;BME280;32622;48.202;11.326;2024-01-27T04:30:36;1039.07;;;0.79;35.11
46886;BME280;32622;48.202;11.326;2024-01-27T04:32:39;1039.21;;;0.23;36.09
46886;BME280;32622;48.202;11.326;2024-01-27T04:34:41;1039.27;;;0.22;36.09
46886;BME280;32622;48.202;11.326;2024-01-27T04:36:43;1039.12;;;0.64;35.78
46886;BME280;32622;48.202;11.326;2024-01-27T04:38:45;1039.08;;;0.89;35.44
46886;BME280;32622;48.202;11.326;2024-01-27T04:40:48;1039.16;;;0.77;35.74
46886;BME280;32622;48.202;11.326;2024-01-27T04:42:50;1039.14;;;0.88;35.41
46886;BME280;32622;48.202;11.326;2024-01-27T04:44:53;1039.16;;;0.55;35.46
46886;BME280;32622;48.202;11.326;2024-01-27T04:46:55;1039.15;;;0.65;35.40
46886;BME280;32622;48.202;11.326;2024-01-27T04:48:57;1039.10;;;0.80;35.18
46886;BME280;32622;48.202;11.326;2024-01-27T04:50:59;1039.10;;;0.83;35.07
46886;BME280;32622;48.202;11.326;2024-01-27T04:53:02;1039.16;;;0.69;34.94
46886;BME280;32622;48.202;11.326;2024-01-27T04:55:04;1039.19;;;0.55;35.38
46886;BME280;32622;48.202;11.326;2024-01-27T04:57:06;1039.16;;;0.63;35.11
46886;BME280;32622;48.202;11.326;2024-01-27T04:59:09;1039.17;;;0.70;34.99
46886;BME280;32622;48.202;11.326;2024-01-27T05:01:11;1039.20;;;0.56;35.22
46886;BME280;32622;48.202;11.326;2024-01-27T05:03:13;1039.20;;;0.52;35.06
46886;BME280;32622;48.202;11.326;2024-01-27T05:05:15;1039.25;;;0.49;35.05
46886;BME280;32622;48.202;11.326;2024-01-27T05:07:17;1039.28;;;0.53;34.83
46886;BME280;32622;48.202;11.326;2024-01-27T05:09:19;1039.27;;;0.68;34.79
46886;BME280;32622;48.202;11.326;2024-01-27T05:11:28;1039.33;;;0.60;34.92
46886;BME280;32622;48.202;11.326;2024-01-27T05:13:31;1039.44;;;0.35;35.06
46886;BME280;32622;48.202;11.326;2024-01-27T05:15:33;1039.37;;;0.71;34.76
46886;BME280;32622;48.202;11.326;2024-01-27T05:17:35;1039.48;;;0.42;35.05
46886;BME280;32622;48.202;11.326;2024-01-27T05:19:37;1039.52;;;0.36;34.92
46886;BME280;32622;48.202;11.326;2024-01-27T05:21:39;1039.54;;;0.35;34.92
46886;BME280;32622;48.202;11.326;2024-01-27T05:23:41;1039.55;;;0.37;34.83
46886;BME280;32622;48.202;11.326;2024-01-27T05:25:44;1039.64;;;0.13;35.13
46886;BME280;32622;48.202;11.326;2024-01-27T05:27:46;1039.73;;;-0.12;35.06
46886;BME280;32622;48.202;11.326;2024-01-27T05:29:48;1039.56;;;0.42;34.91
46886;BME280;32622;48.202;11.326;2024-01-27T05:31:50;1039.68;;;0.07;34.63
46886;BME280;32622;48.202;11.326;2024-01-27T05:33:52;1039.70;;;0.20;35.02
46886;BME280;32622;48.202;11.326;2024-01-27T05:35:54;1039.74;;;0.16;35.12
46886;BME280;32622;48.202;11.326;2024-01-27T05:37:57;1039.80;;;0.11;35.21
46886;BME280;32622;48.202;11.326;2024-01-27T05:39:59;1039.77;;;0.16;34.97
46886;BME280;32622;48.202;11.326;2024-01-27T05:42:01;1039.81;;;0.14;34.98
46886;BME280;32622;48.202;11.326;2024-01-27T05:44:04;1039.85;;;0.14;34.82
46886;BME280;32622;48.202;11.326;2024-01-27T05:46:06;1040.00;;;-0.23;34.94
46886;BME280;32622;48.202;11.326;2024-01-27T05:48:10;1040.01;;;-0.36;35.14
46886;BME280;32622;48.202;11.326;2024-01-27T05:50:12;1040.05;;;-0.39;35.22
46886;BME280;32622;48.202;11.326;2024-01-27T05:52:14;1040.12;;;-0.46;35.27
46886;BME280;32622;48.202;11.326;2024-01-27T05:54:17;1040.08;;;-0.03;35.41
46886;BME280;32622;48.202;11.326;2024-01-27T05:56:19;1040.09;;;0.00;35.30
46886;BME280;32622;48.202;11.326;2024-01-27T05:58:21;1040.13;;;-0.05;35.01
46886;BME280;32622;48.202;11.326;2024-01-27T06:00:23;1040.23;;;-0.37;35.21
46886;BME280;32622;48.202;11.326;2024-01-27T06:02:25;1040.25;;;-0.33;35.02
46886;BME280;32622;48.202;11.326;2024-01-27T06:04:27;1040.38;;;-0.65;35.35
46886;BME280;32622;48.202;11.326;2024-01-27T06:06:29;1040.37;;;-0.54;35.48
46886;BME280;32622;48.202;11.326;2024-01-27T06:08:31;1040.41;;;-0.52;35.46
46886;BME280;32622;48.202;11.326;2024-01-27T06:10:34;1040.45;;;-0.39;35.36
46886;BME280;32622;48.202;11.326;2024-01-27T06:12:37;1040.40;;;-0.06;35.08
46886;BME280;32622;48.202;11.326;2024-01-27T06:14:41;1040.50;;;-0.46;35.49
46886;BME280;32622;48.202;11.326;2024-01-27T06:16:43;1040.58;;;-0.83;35.49
46886;BME280;32622;48.202;11.326;2024-01-27T06:18:45;1040.54;;;-0.72;35.26
46886;BME280;32622;48.202;11.326;2024-01-27T06:20:47;1040.53;;;-0.58;35.58
46886;BME280;32622;48.202;11.326;2024-01-27T06:22:51;1040.48;;;-0.36;35.87
46886;BME280;32622;48.202;11.326;2024-01-27T06:24:53;1040.49;;;-0.40;35.80
46886;BME280;32622;48.202;11.326;2024-01-27T06:26:55;1040.64;;;-1.02;35.79
46886;BME280;32622;48.202;11.326;2024-01-27T06:28:57;1040.55;;;-0.64;35.48
46886;BME280;32622;48.202;11.326;2024-01-27T06:30:59;1040.56;;;-0.65;35.27
46886;BME280;32622;48.202;11.326;2024-01-27T06:33:02;1040.59;;;-0.58;35.54
46886;BME280;32622;48.202;11.326;2024-01-27T06:35:04;1040.58;;;-0.50;35.46
46886;BME280;32622;48.202;11.326;2024-01-27T06:37:06;1040.52;;;-0.35;34.94
46886;BME280;32622;48.202;11.326;2024-01-27T06:39:09;1040.71;;;-1.05;35.35
46886;BME280;32622;48.202;11.326;2024-01-27T06:41:11;1040.65;;;-0.52;35.48
46886;BME280;32622;48.202;11.326;2024-01-27T06:43:13;1040.75;;;-0.86;35.80
46886;BME280;32622;48.202;11.326;2024-01-27T06:45:16;1040.55;;;-0.12;35.65
46886;BME280;32622;48.202;11.326;2024-01-27T06:47:18;1040.60;;;-0.41;35.67
46886;BME280;32622;48.202;11.326;2024-01-27T06:49:20;1040.60;;;-0.32;35.47
46886;BME280;32622;48.202;11.326;2024-01-27T06:51:22;1040.67;;;-0.65;35.68
46886;BME280;32622;48.202;11.326;2024-01-27T06:53:24;1040.68;;;-0.69;35.73
46886;BME280;32622;48.202;11.326;2024-01-27T06:55:26;1040.72;;;-0.81;35.74
46886;BME280;32622;48.202;11.326;2024-01-27T06:57:29;1040.75;;;-0.80;35.39
46886;BME280;32622;48.202;11.326;2024-01-27T06:59:31;1040.80;;;-0.95;35.21
46886;BME280;32622;48.202;11.326;2024-01-27T07:01:33;1040.65;;;-0.40;35.18
46886;BME280;32622;48.202;11.326;2024-01-27T07:03:35;1040.66;;;-0.37;34.99
46886;BME280;32622;48.202;11.326;2024-01-27T07:05:37;1040.66;;;-0.32;35.03
46886;BME280;32622;48.202;11.326;2024-01-27T07:07:40;1040.78;;;-0.71;35.01
46886;BME280;32622;48.202;11.326;2024-01-27T07:09:42;1040.76;;;-0.57;34.77
46886;BME280;32622;48.202;11.326;2024-01-27T07:11:44;1040.80;;;-0.89;35.21
46886;BME280;32622;48.202;11.326;2024-01-27T07:13:46;1040.81;;;-0.91;35.29
46886;BME280;32622;48.202;11.326;2024-01-27T07:15:48;1040.76;;;-0.69;35.56
46886;BME280;32622;48.202;11.326;2024-01-27T07:17:51;1040.81;;;-0.76;35.44
46886;BME280;32622;48.202;11.326;2024-01-27T07:19:53;1040.90;;;-0.97;35.42
46886;BME280;32622;48.202;11.326;2024-01-27T07:21:56;1040.83;;;-0.60;35.45
46886;BME280;32622;48.202;11.326;2024-01-27T07:23:58;1040.77;;;-0.40;35.58
46886;BME280;32622;48.202;11.326;2024-01-27T07:26:00;1040.82;;;-0.61;35.53
46886;BME280;32622;48.202;11.326;2024-01-27T07:28:02;1040.76;;;-0.38;35.21
46886;BME280;32622;48.202;11.326;2024-01-27T07:30:06;1040.68;;;-0.18;35.20
46886;BME280;32622;48.202;11.326;2024-01-27T07:32:08;1040.81;;;-0.61;35.26
46886;BME280;32622;48.202;11.326;2024-01-27T07:34:10;1040.83;;;-0.76;35.47
46886;BME280;32622;48.202;11.326;2024-01-27T07:36:13;1040.74;;;-0.24;35.40
46886;BME280;32622;48.202;11.326;2024-01-27T07:38:15;1040.67;;;0.04;35.21
46886;BME280;32622;48.202;11.326;2024-01-27T07:40:17;1040.70;;;-0.06;34.84
46886;BME280;32622;48.202;11.326;2024-01-27T07:42:19;1040.60;;;0.24;35.00
46886;BME280;32622;48.202;11.326;2024-01-27T07:44:21;1040.63;;;0.13;34.93
46886;BME280;32622;48.202;11.326;2024-01-27T07:46:24;1040.63;;;-0.02;34.94
46886;BME280;32622;48.202;11.326;2024-01-27T07:48:26;1040.55;;;0.21;34.85
46886;BME280;32622;48.202;11.326;2024-01-27T07:50:28;1040.49;;;0.45;34.67
46886;BME280;32622;48.202;11.326;2024-01-27T07:52:30;1040.56;;;0.38;34.68
46886;BME280;32622;48.202;11.326;2024-01-27T07:54:32;1040.62;;;0.39;34.99
46886;BME280;32622;48.202;11.326;2024-01-27T07:56:34;1040.61;;;0.41;34.89
46886;BME280;32622;48.202;11.326;2024-01-27T07:58:37;1040.58;;;0.64;34.64
46886;BME280;32622;48.202;11.326;2024-01-27T08:00:39;1040.50;;;0.77;34.48
46886;BME280;32622;48.202;11.326;2024-01-27T08:02:41;1040.51;;;0.63;34.67
46886;BME280;32622;48.202;11.326;2024-01-27T08:04:43;1040.42;;;0.94;34.55
46886;BME280;32622;48.202;11.326;2024-01-27T08:06:47;1040.36;;;1.04;34.46
46886;BME280;32622;48.202;11.326;2024-01-27T08:08:50;1040.40;;;0.84;34.67
46886;BME280;32622;48.202;11.326;2024-01-27T08:10:52;1040.42;;;0.77;34.66
46886;BME280;32622;48.202;11.326;2024-01-27T08:12:54;1040.35;;;1.06;34.72
46886;BME280;32622;48.202;11.326;2024-01-27T08:14:56;1040.29;;;1.28;34.48
46886;BME280;32622;48.202;11.326;2024-01-27T08:16:59;1040.32;;;1.11;34.34
46886;BME280;32622;48.202;11.326;2024-01-27T08:19:02;1040.32;;;1.19;34.72
46886;BME280;32622;48.202;11.326;2024-01-27T08:21:04;1040.23;;;1.63;34.71
46886;BME280;32622;48.202;11.326;2024-01-27T08:23:07;1040.32;;;1.26;34.66
46886;BME280;32622;48.202;11.326;2024-01-27T08:25:09;1040.43;;;0.93;34.77
46886;BME280;32622;48.202;11.326;2024-01-27T08:27:12;1040.35;;;1.22;34.61
46886;BME280;32622;48.202;11.326;2024-01-27T08:29:15;1040.40;;;1.20;34.67
46886;BME280;32622;48.202;11.326;2024-01-27T08:31:17;1040.38;;;1.54;34.80
46886;BME280;32622;48.202;11.326;2024-01-27T08:33:19;1040.19;;;2.32;34.46
46886;BME280;32622;48.202;11.326;2024-01-27T08:35:21;1040.33;;;1.86;34.13
46886;BME280;32622;48.202;11.326;2024-01-27T08:37:23;1040.41;;;1.76;34.22
46886;BME280;32622;48.202;11.326;2024-01-27T08:39:26;1040.56;;;1.31;34.82
46886;BME280;32622;48.202;11.326;2024-01-27T08:41:28;1040.65;;;1.21;34.71
46886;BME280;32622;48.202;11.326;2024-01-27T08:43:30;1040.56;;;1.73;34.63
46886;BME280;32622;48.202;11.326;2024-01-27T08:45:32;1040.56;;;1.74;34.09
46886;BME280;32622;48.202;11.326;2024-01-27T08:47:34;1040.52;;;1.84;34.48
46886;BME280;32622;48.202;11.326;2024-01-27T08:49:36;1040.51;;;1.98;34.29
46886;BME280;32622;48.202;11.326;2024-01-27T08:51:38;1040.51;;;1.93;34.43
46886;BME280;32622;48.202;11.326;2024-01-27T08:53:41;1040.63;;;1.56;34.79
46886;BME280;32622;48.202;11.326;2024-01-27T08:55:43;1040.57;;;1.83;34.74
46886;BME280;32622;48.202;11.326;2024-01-27T08:57:46;1040.54;;;1.76;34.93
46886;BME280;32622;48.202;11.326;2024-01-27T08:59:48;1040.50;;;2.01;34.79
46886;BME280;32622;48.202;11.326;2024-01-27T09:01:50;1040.47;;;2.06;34.60
46886;BME280;32622;48.202;11.326;2024-01-27T09:03:52;1040.54;;;1.90;34.35
46886;BME280;32622;48.202;11.326;2024-01-27T09:05:54;1040.60;;;1.87;34.42
46886;BME280;32622;48.202;11.326;2024-01-27T09:07:56;1040.70;;;1.70;34.53
46886;BME280;32622;48.202;11.326;2024-01-27T09:09:59;1040.71;;;1.81;34.50
46886;BME280;32622;48.202;11.326;2024-01-27T09:12:01;1040.72;;;1.69;36.07
46886;BME280;32622;48.202;11.326;2024-01-27T09:14:03;1040.60;;;2.00;35.09
46886;BME280;32622;48.202;11.326;2024-01-27T09:16:06;1040.66;;;1.73;34.92
46886;BME280;32622;48.202;11.326;2024-01-27T09:18:08;1040.54;;;2.24;35.12
46886;BME280;32622;48.202;11.326;2024-01-27T09:20:11;1040.61;;;1.88;35.07
46886;BME280;32622;48.202;11.326;2024-01-27T09:22:13;1040.64;;;1.88;35.41
46886;BME280;32622;48.202;11.326;2024-01-27T09:24:15;1040.62;;;1.91;35.12
46886;BME280;32622;48.202;11.326;2024-01-27T09:26:17;1040.71;;;1.62;35.72
46886;BME280;32622;48.202;11.326;2024-01-27T09:28:20;1040.55;;;2.13;35.49
46886;BME280;32622;48.202;11.326;2024-01-27T09:30:22;1040.66;;;1.58;35.71
46886;BME280;32622;48.202;11.326;2024-01-27T09:32:24;1040.64;;;1.76;36.00
46886;BME280;32622;48.202;11.326;2024-01-27T09:34:26;1040.79;;;1.03;36.48
46886;BME280;32622;48.202;11.326;2024-01-27T09:36:28;1040.71;;;1.39;36.60
46886;BME280;32622;48.202;11.326;2024-01-27T09:38:31;1040.61;;;1.73;36.26
46886;BME280;32622;48.202;11.326;2024-01-27T09:40:33;1040.49;;;2.14;35.90
46886;BME280;32622;48.202;11.326;2024-01-27T09:42:35;1040.66;;;1.55;36.44
46886;BME280;32622;48.202;11.326;2024-01-27T09:44:40;1040.60;;;1.80;36.26
46886;BME280;32622;48.202;11.326;2024-01-27T09:46:45;1040.70;;;1.33;36.99
46886;BME280;32622;48.202;11.326;2024-01-27T09:48:48;1040.70;;;1.68;36.71
46886;BME280;32622;48.202;11.326;2024-01-27T09:50:51;1040.76;;;1.56;36.53
46886;BME280;32622;48.202;11.326;2024-01-27T09:52:54;1040.80;;;1.50;36.16
46886;BME280;32622;48.202;11.326;2024-01-27T09:54:56;1040.79;;;1.76;36.07
46886;BME280;32622;48.202;11.326;2024-01-27T09:56:59;1040.79;;;1.78;35.76
46886;BME280;32622;48.202;11.326;2024-01-27T09:59:02;1040.62;;;2.47;35.35
46886;BME280;32622;48.202;11.326;2024-01-27T10:01:06;1040.86;;;1.50;35.97
46886;BME280;32622;48.202;11.326;2024-01-27T10:03:10;1040.88;;;1.50;35.77
46886;BME280;32622;48.202;11.326;2024-01-27T10:05:13;1040.78;;;1.88;35.84
46886;BME280;32622;48.202;11.326;2024-01-27T10:07:15;1040.92;;;1.51;36.39
46886;BME280;32622;48.202;11.326;2024-01-27T10:09:17;1041.16;;;0.93;37.13
46886;BME280;32622;48.202;11.326;2024-01-27T10:11:20;1040.91;;;1.76;36.08
46886;BME280;32622;48.202;11.326;2024-01-27T10:13:23;1040.93;;;1.67;35.99
46886;BME280;32622;48.202;11.326;2024-01-27T10:15:25;1040.89;;;1.79;36.03
46886;BME280;32622;48.202;11.326;2024-01-27T10:17:27;1041.07;;;1.17;36.55
46886;BME280;32622;48.202;11.326;2024-01-27T10:19:29;1040.87;;;1.67;35.74
46886;BME280;32622;48.202;11.326;2024-01-27T10:21:32;1040.92;;;1.57;35.53
46886;BME280;32622;48.202;11.326;2024-01-27T10:23:38;1040.88;;;1.80;35.81
46886;BME280;32622;48.202;11.326;2024-01-27T10:25:41;1040.80;;;1.89;35.50
46886;BME280;32622;48.202;11.326;2024-01-27T10:27:43;1040.74;;;2.04;35.63
46886;BME280;32622;48.202;11.326;2024-01-27T10:29:52;1040.59;;;2.50;34.57
46886;BME280;32622;48.202;11.326;2024-01-27T10:31:54;1040.53;;;2.78;33.86
46886;BME280;32622;48.202;11.326;2024-01-27T10:33:56;1040.52;;;2.66;33.83
46886;BME280;32622;48.202;11.326;2024-01-27T10:35:59;1040.43;;;3.04;33.21
46886;BME280;32622;48.202;11.326;2024-01-27T10:38:01;1040.46;;;2.77;33.26
46886;BME280;32622;48.202;11.326;2024-01-27T10:40:05;1040.51;;;2.45;33.27
46886;BME280;32622;48.202;11.326;2024-01-27T10:42:08;1040.47;;;2.47;33.20
46886;BME280;32622;48.202;11.326;2024-01-27T10:44:14;1040.48;;;2.60;33.23
46886;BME280;32622;48.202;11.326;2024-01-27T10:46:19;1040.46;;;2.71;33.88
46886;BME280;32622;48.202;11.326;2024-01-27T10:48:23;1040.58;;;1.98;34.29
46886;BME280;32622;48.202;11.326;2024-01-27T10:50:28;1040.47;;;2.25;34.35
46886;BME280;32622;48.202;11.326;2024-01-27T10:52:32;1040.52;;;1.89;33.78
46886;BME280;32622;48.202;11.326;2024-01-27T10:54:35;1040.56;;;1.83;34.58
46886;BME280;32622;48.202;11.326;2024-01-27T10:56:38;1040.67;;;1.50;34.85